sensor_id;sensor_type;location;lat;lon;timestamp;P1;durP1;ratioP1;P2;durP2;ratioP2
42704;SDS011;28342;42.594;23.414;2023-07-24T00:01:01;10.20;;;5.22;;
42704;SDS011;28342;42.594;23.414;2023-07-24T00:03:27;11.50;;;6.22;;
42704;SDS011;28342;42.594;23.414;2023-07-24T00:05:52;12.27;;;6.35;;
42704;SDS011;28342;42.594;23.414;2023-07-24T00:08:17;11.82;;;6.05;;
42704;SDS011;28342;42.594;23.414;2023-07-24T00:10:43;14.50;;;6.32;;
42704;SDS011;28342;42.594;23.414;2023-07-24T00:13:08;10.48;;;5.82;;
42704;SDS011;28342;42.594;23.414;2023-07-24T00:15:34;13.45;;;6.25;;
42704;SDS011;28342;42.594;23.414;2023-07-24T00:17:59;10.75;;;5.75;;
42704;SDS011;28342;42.594;23.414;2023-07-24T00:20:24;12.88;;;6.50;;
42704;SDS011;28342;42.594;23.414;2023-07-24T00:22:51;13.02;;;6.78;;
42704;SDS011;28342;42.594;23.414;2023-07-24T00:25:16;13.50;;;6.88;;
42704;SDS011;28342;42.594;23.414;2023-07-24T00:27:42;12.32;;;6.40;;
42704;SDS011;28342;42.594;23.414;2023-07-24T00:30:07;13.05;;;7.43;;
42704;SDS011;28342;42.594;23.414;2023-07-24T00:32:33;13.18;;;6.43;;
42704;SDS011;28342;42.594;23.414;2023-07-24T00:34:59;10.02;;;5.90;;
42704;SDS011;28342;42.594;23.414;2023-07-24T00:37:24;11.98;;;6.55;;
42704;SDS011;28342;42.594;23.414;2023-07-24T00:39:50;10.45;;;6.57;;
42704;SDS011;28342;42.594;23.414;2023-07-24T00:42:15;13.98;;;6.50;;
42704;SDS011;28342;42.594;23.414;2023-07-24T00:44:40;13.48;;;6.95;;
42704;SDS011;28342;42.594;23.414;2023-07-24T00:47:06;11.00;;;5.95;;
42704;SDS011;28342;42.594;23.414;2023-07-24T00:49:32;10.52;;;6.40;;
42704;SDS011;28342;42.594;23.414;2023-07-24T00:51:58;11.02;;;6.13;;
42704;SDS011;28342;42.594;23.414;2023-07-24T00:54:23;13.60;;;7.13;;
42704;SDS011;28342;42.594;23.414;2023-07-24T00:56:49;10.48;;;5.75;;
42704;SDS011;28342;42.594;23.414;2023-07-24T00:59:15;12.25;;;6.95;;
42704;SDS011;28342;42.594;23.414;2023-07-24T01:01:41;11.65;;;6.45;;
42704;SDS011;28342;42.594;23.414;2023-07-24T01:04:07;10.35;;;6.10;;
42704;SDS011;28342;42.594;23.414;2023-07-24T01:06:33;14.13;;;6.95;;
42704;SDS011;28342;42.594;23.414;2023-07-24T01:08:59;16.27;;;6.63;;
42704;SDS011;28342;42.594;23.414;2023-07-24T01:11:25;11.32;;;6.35;;
42704;SDS011;28342;42.594;23.414;2023-07-24T01:13:58;14.20;;;7.57;;
42704;SDS011;28342;42.594;23.414;2023-07-24T01:16:36;12.80;;;7.55;;
42704;SDS011;28342;42.594;23.414;2023-07-24T01:19:04;16.55;;;6.95;;
42704;SDS011;28342;42.594;23.414;2023-07-24T01:22:25;13.93;;;7.03;;
42704;SDS011;28342;42.594;23.414;2023-07-24T01:24:35;12.73;;;7.38;;
42704;SDS011;28342;42.594;23.414;2023-07-24T01:29:32;13.52;;;6.65;;
42704;SDS011;28342;42.594;23.414;2023-07-24T01:31:58;14.85;;;6.70;;
42704;SDS011;28342;42.594;23.414;2023-07-24T01:34:23;12.55;;;6.88;;
42704;SDS011;28342;42.594;23.414;2023-07-24T01:36:49;12.98;;;6.90;;
42704;SDS011;28342;42.594;23.414;2023-07-24T01:39:15;13.95;;;7.47;;
42704;SDS011;28342;42.594;23.414;2023-07-24T01:41:45;14.75;;;6.97;;
42704;SDS011;28342;42.594;23.414;2023-07-24T01:44:11;12.77;;;6.50;;
42704;SDS011;28342;42.594;23.414;2023-07-24T01:46:36;11.90;;;6.90;;
42704;SDS011;28342;42.594;23.414;2023-07-24T01:49:02;12.30;;;7.22;;
42704;SDS011;28342;42.594;23.414;2023-07-24T01:51:27;15.23;;;6.80;;
42704;SDS011;28342;42.594;23.414;2023-07-24T01:53:53;13.50;;;6.80;;
42704;SDS011;28342;42.594;23.414;2023-07-24T01:56:18;14.05;;;7.22;;
42704;SDS011;28342;42.594;23.414;2023-07-24T01:58:43;13.30;;;7.60;;
42704;SDS011;28342;42.594;23.414;2023-07-24T02:01:09;15.25;;;7.38;;
42704;SDS011;28342;42.594;23.414;2023-07-24T02:03:35;14.00;;;7.57;;
42704;SDS011;28342;42.594;23.414;2023-07-24T02:06:00;17.17;;;7.85;;
42704;SDS011;28342;42.594;23.414;2023-07-24T02:08:26;13.60;;;6.88;;
42704;SDS011;28342;42.594;23.414;2023-07-24T02:10:51;15.88;;;8.00;;
42704;SDS011;28342;42.594;23.414;2023-07-24T02:13:17;15.38;;;7.82;;
42704;SDS011;28342;42.594;23.414;2023-07-24T02:15:43;15.73;;;7.95;;
42704;SDS011;28342;42.594;23.414;2023-07-24T02:18:08;15.38;;;8.57;;
42704;SDS011;28342;42.594;23.414;2023-07-24T02:20:34;15.73;;;8.15;;
42704;SDS011;28342;42.594;23.414;2023-07-24T02:22:59;14.13;;;7.97;;
42704;SDS011;28342;42.594;23.414;2023-07-24T02:25:25;14.98;;;7.57;;
42704;SDS011;28342;42.594;23.414;2023-07-24T02:27:50;15.75;;;7.95;;
42704;SDS011;28342;42.594;23.414;2023-07-24T02:30:16;13.60;;;6.93;;
42704;SDS011;28342;42.594;23.414;2023-07-24T02:32:41;12.70;;;6.68;;
42704;SDS011;28342;42.594;23.414;2023-07-24T02:35:07;14.98;;;7.82;;
42704;SDS011;28342;42.594;23.414;2023-07-24T02:37:32;18.00;;;8.35;;
42704;SDS011;28342;42.594;23.414;2023-07-24T02:39:58;13.65;;;7.30;;
42704;SDS011;28342;42.594;23.414;2023-07-24T02:42:23;14.80;;;7.68;;
42704;SDS011;28342;42.594;23.414;2023-07-24T02:44:49;14.90;;;7.88;;
42704;SDS011;28342;42.594;23.414;2023-07-24T02:47:14;15.25;;;8.82;;
42704;SDS011;28342;42.594;23.414;2023-07-24T02:49:40;16.17;;;7.72;;
42704;SDS011;28342;42.594;23.414;2023-07-24T02:52:08;16.23;;;7.35;;
42704;SDS011;28342;42.594;23.414;2023-07-24T02:54:33;16.95;;;7.68;;
42704;SDS011;28342;42.594;23.414;2023-07-24T02:56:59;18.65;;;9.70;;
42704;SDS011;28342;42.594;23.414;2023-07-24T02:59:24;17.30;;;9.90;;
42704;SDS011;28342;42.594;23.414;2023-07-24T03:01:49;15.48;;;7.82;;
42704;SDS011;28342;42.594;23.414;2023-07-24T03:04:15;13.77;;;7.05;;
42704;SDS011;28342;42.594;23.414;2023-07-24T03:06:40;17.58;;;8.60;;
42704;SDS011;28342;42.594;23.414;2023-07-24T03:09:06;17.02;;;7.90;;
42704;SDS011;28342;42.594;23.414;2023-07-24T03:11:31;19.48;;;8.50;;
42704;SDS011;28342;42.594;23.414;2023-07-24T03:13:57;16.38;;;7.65;;
42704;SDS011;28342;42.594;23.414;2023-07-24T03:16:22;16.65;;;7.47;;
42704;SDS011;28342;42.594;23.414;2023-07-24T03:18:48;16.63;;;8.68;;
42704;SDS011;28342;42.594;23.414;2023-07-24T03:21:13;15.40;;;8.18;;
42704;SDS011;28342;42.594;23.414;2023-07-24T03:23:38;18.02;;;8.80;;
42704;SDS011;28342;42.594;23.414;2023-07-24T03:26:04;23.08;;;8.52;;
42704;SDS011;28342;42.594;23.414;2023-07-24T03:28:29;16.05;;;8.27;;
42704;SDS011;28342;42.594;23.414;2023-07-24T03:30:55;14.80;;;7.95;;
42704;SDS011;28342;42.594;23.414;2023-07-24T03:33:20;20.98;;;8.80;;
42704;SDS011;28342;42.594;23.414;2023-07-24T03:35:46;17.95;;;8.82;;
42704;SDS011;28342;42.594;23.414;2023-07-24T03:38:11;17.02;;;8.27;;
42704;SDS011;28342;42.594;23.414;2023-07-24T03:40:37;17.00;;;7.75;;
42704;SDS011;28342;42.594;23.414;2023-07-24T03:43:02;18.63;;;9.32;;
42704;SDS011;28342;42.594;23.414;2023-07-24T03:45:28;17.50;;;8.57;;
42704;SDS011;28342;42.594;23.414;2023-07-24T03:47:53;15.70;;;8.23;;
42704;SDS011;28342;42.594;23.414;2023-07-24T03:50:18;18.30;;;7.63;;
42704;SDS011;28342;42.594;23.414;2023-07-24T03:52:44;14.45;;;8.52;;
42704;SDS011;28342;42.594;23.414;2023-07-24T03:55:09;21.25;;;9.25;;
42704;SDS011;28342;42.594;23.414;2023-07-24T03:57:35;19.63;;;8.18;;
42704;SDS011;28342;42.594;23.414;2023-07-24T04:00:01;16.75;;;8.85;;
42704;SDS011;28342;42.594;23.414;2023-07-24T04:02:27;20.08;;;9.20;;
42704;SDS011;28342;42.594;23.414;2023-07-24T04:04:53;19.15;;;8.57;;
42704;SDS011;28342;42.594;23.414;2023-07-24T04:07:18;24.63;;;9.05;;
42704;SDS011;28342;42.594;23.414;2023-07-24T04:09:43;19.02;;;9.00;;
42704;SDS011;28342;42.594;23.414;2023-07-24T04:12:09;23.33;;;10.05;;
42704;SDS011;28342;42.594;23.414;2023-07-24T04:14:34;18.83;;;9.20;;
42704;SDS011;28342;42.594;23.414;2023-07-24T04:17:00;16.52;;;9.10;;
42704;SDS011;28342;42.594;23.414;2023-07-24T04:19:25;16.23;;;7.97;;
42704;SDS011;28342;42.594;23.414;2023-07-24T04:21:50;20.35;;;8.52;;
42704;SDS011;28342;42.594;23.414;2023-07-24T04:24:16;16.13;;;8.15;;
42704;SDS011;28342;42.594;23.414;2023-07-24T04:26:41;22.17;;;9.75;;
42704;SDS011;28342;42.594;23.414;2023-07-24T04:29:07;17.88;;;9.13;;
42704;SDS011;28342;42.594;23.414;2023-07-24T04:31:32;21.35;;;9.65;;
42704;SDS011;28342;42.594;23.414;2023-07-24T04:33:58;24.05;;;11.32;;
42704;SDS011;28342;42.594;23.414;2023-07-24T04:36:24;22.83;;;10.07;;
42704;SDS011;28342;42.594;23.414;2023-07-24T04:38:49;20.65;;;9.43;;
42704;SDS011;28342;42.594;23.414;2023-07-24T04:41:14;17.23;;;8.55;;
42704;SDS011;28342;42.594;23.414;2023-07-24T04:43:40;16.58;;;7.95;;
42704;SDS011;28342;42.594;23.414;2023-07-24T04:46:05;19.73;;;8.75;;
42704;SDS011;28342;42.594;23.414;2023-07-24T04:48:31;18.75;;;8.63;;
42704;SDS011;28342;42.594;23.414;2023-07-24T04:50:56;19.25;;;8.35;;
42704;SDS011;28342;42.594;23.414;2023-07-24T04:53:22;15.48;;;7.80;;
42704;SDS011;28342;42.594;23.414;2023-07-24T04:55:48;19.38;;;8.85;;
42704;SDS011;28342;42.594;23.414;2023-07-24T04:58:13;15.13;;;9.13;;
42704;SDS011;28342;42.594;23.414;2023-07-24T05:00:39;15.50;;;8.30;;
42704;SDS011;28342;42.594;23.414;2023-07-24T05:03:05;19.95;;;9.30;;
42704;SDS011;28342;42.594;23.414;2023-07-24T05:05:36;18.98;;;8.52;;
42704;SDS011;28342;42.594;23.414;2023-07-24T05:08:02;22.13;;;9.60;;
42704;SDS011;28342;42.594;23.414;2023-07-24T05:10:28;17.17;;;8.73;;
42704;SDS011;28342;42.594;23.414;2023-07-24T05:12:53;17.00;;;8.82;;
42704;SDS011;28342;42.594;23.414;2023-07-24T05:15:21;15.75;;;8.77;;
42704;SDS011;28342;42.594;23.414;2023-07-24T05:17:47;17.70;;;9.38;;
42704;SDS011;28342;42.594;23.414;2023-07-24T05:20:12;19.75;;;9.13;;
42704;SDS011;28342;42.594;23.414;2023-07-24T05:22:38;17.30;;;8.88;;
42704;SDS011;28342;42.594;23.414;2023-07-24T05:25:03;16.02;;;8.55;;
42704;SDS011;28342;42.594;23.414;2023-07-24T05:27:29;20.05;;;8.95;;
42704;SDS011;28342;42.594;23.414;2023-07-24T05:29:54;17.00;;;8.43;;
42704;SDS011;28342;42.594;23.414;2023-07-24T05:32:20;16.17;;;8.77;;
42704;SDS011;28342;42.594;23.414;2023-07-24T05:34:46;15.05;;;8.75;;
42704;SDS011;28342;42.594;23.414;2023-07-24T05:37:11;19.13;;;9.15;;
42704;SDS011;28342;42.594;23.414;2023-07-24T05:39:36;15.88;;;8.05;;
42704;SDS011;28342;42.594;23.414;2023-07-24T05:42:02;16.77;;;8.00;;
42704;SDS011;28342;42.594;23.414;2023-07-24T05:44:28;17.83;;;9.25;;
42704;SDS011;28342;42.594;23.414;2023-07-24T05:46:53;20.05;;;8.18;;
42704;SDS011;28342;42.594;23.414;2023-07-24T05:49:19;20.23;;;8.23;;
42704;SDS011;28342;42.594;23.414;2023-07-24T05:51:45;18.90;;;9.23;;
42704;SDS011;28342;42.594;23.414;2023-07-24T05:54:10;18.25;;;9.20;;
42704;SDS011;28342;42.594;23.414;2023-07-24T05:56:36;16.77;;;8.30;;
42704;SDS011;28342;42.594;23.414;2023-07-24T05:59:03;18.48;;;8.60;;
42704;SDS011;28342;42.594;23.414;2023-07-24T06:01:29;15.45;;;8.70;;
42704;SDS011;28342;42.594;23.414;2023-07-24T06:03:54;18.98;;;8.77;;
42704;SDS011;28342;42.594;23.414;2023-07-24T06:06:20;15.93;;;8.27;;
42704;SDS011;28342;42.594;23.414;2023-07-24T06:08:45;20.30;;;9.57;;
42704;SDS011;28342;42.594;23.414;2023-07-24T06:11:12;15.43;;;8.02;;
42704;SDS011;28342;42.594;23.414;2023-07-24T06:13:37;19.10;;;9.30;;
42704;SDS011;28342;42.594;23.414;2023-07-24T06:16:03;19.70;;;9.82;;
42704;SDS011;28342;42.594;23.414;2023-07-24T06:18:29;18.77;;;9.15;;
42704;SDS011;28342;42.594;23.414;2023-07-24T06:20:54;18.17;;;9.05;;
42704;SDS011;28342;42.594;23.414;2023-07-24T06:23:19;16.92;;;8.73;;
42704;SDS011;28342;42.594;23.414;2023-07-24T06:25:46;22.25;;;8.90;;
42704;SDS011;28342;42.594;23.414;2023-07-24T06:28:12;18.50;;;9.13;;
42704;SDS011;28342;42.594;23.414;2023-07-24T06:30:40;13.73;;;7.80;;
42704;SDS011;28342;42.594;23.414;2023-07-24T06:33:05;16.20;;;8.10;;
42704;SDS011;28342;42.594;23.414;2023-07-24T06:35:33;18.42;;;8.65;;
42704;SDS011;28342;42.594;23.414;2023-07-24T06:37:58;18.35;;;9.50;;
42704;SDS011;28342;42.594;23.414;2023-07-24T06:40:24;14.18;;;8.13;;
42704;SDS011;28342;42.594;23.414;2023-07-24T06:42:49;14.35;;;7.82;;
42704;SDS011;28342;42.594;23.414;2023-07-24T06:45:14;13.65;;;6.70;;
42704;SDS011;28342;42.594;23.414;2023-07-24T06:47:40;14.45;;;6.97;;
42704;SDS011;28342;42.594;23.414;2023-07-24T06:50:05;13.63;;;7.20;;
42704;SDS011;28342;42.594;23.414;2023-07-24T06:52:32;9.18;;;5.75;;
42704;SDS011;28342;42.594;23.414;2023-07-24T06:54:58;9.90;;;6.22;;
42704;SDS011;28342;42.594;23.414;2023-07-24T06:57:23;12.32;;;6.07;;
42704;SDS011;28342;42.594;23.414;2023-07-24T06:59:49;9.57;;;5.60;;
42704;SDS011;28342;42.594;23.414;2023-07-24T07:02:15;10.30;;;6.15;;
42704;SDS011;28342;42.594;23.414;2023-07-24T07:04:40;15.15;;;6.25;;
42704;SDS011;28342;42.594;23.414;2023-07-24T07:07:06;9.40;;;5.25;;
42704;SDS011;28342;42.594;23.414;2023-07-24T07:09:31;11.10;;;6.78;;
42704;SDS011;28342;42.594;23.414;2023-07-24T07:11:56;10.57;;;5.45;;
42704;SDS011;28342;42.594;23.414;2023-07-24T07:14:22;10.63;;;6.05;;
42704;SDS011;28342;42.594;23.414;2023-07-24T07:16:47;13.35;;;6.60;;
42704;SDS011;28342;42.594;23.414;2023-07-24T07:19:13;10.45;;;6.13;;
42704;SDS011;28342;42.594;23.414;2023-07-24T07:21:38;13.68;;;6.57;;
42704;SDS011;28342;42.594;23.414;2023-07-24T07:24:04;11.85;;;6.45;;
42704;SDS011;28342;42.594;23.414;2023-07-24T07:26:29;12.32;;;6.15;;
42704;SDS011;28342;42.594;23.414;2023-07-24T07:28:55;10.30;;;5.90;;
42704;SDS011;28342;42.594;23.414;2023-07-24T07:31:21;12.20;;;7.30;;
42704;SDS011;28342;42.594;23.414;2023-07-24T07:33:46;11.07;;;6.32;;
42704;SDS011;28342;42.594;23.414;2023-07-24T07:36:12;12.00;;;6.28;;
42704;SDS011;28342;42.594;23.414;2023-07-24T07:38:37;12.35;;;7.20;;
42704;SDS011;28342;42.594;23.414;2023-07-24T07:43:34;11.05;;;6.18;;
42704;SDS011;28342;42.594;23.414;2023-07-24T07:46:01;9.88;;;6.00;;
42704;SDS011;28342;42.594;23.414;2023-07-24T07:48:27;13.93;;;6.97;;
42704;SDS011;28342;42.594;23.414;2023-07-24T07:50:52;10.13;;;6.13;;
42704;SDS011;28342;42.594;23.414;2023-07-24T07:53:25;12.35;;;6.32;;
42704;SDS011;28342;42.594;23.414;2023-07-24T07:55:58;10.50;;;6.28;;
42704;SDS011;28342;42.594;23.414;2023-07-24T07:58:27;12.73;;;6.60;;
42704;SDS011;28342;42.594;23.414;2023-07-24T08:00:52;9.15;;;6.35;;
42704;SDS011;28342;42.594;23.414;2023-07-24T08:03:18;11.18;;;6.85;;
42704;SDS011;28342;42.594;23.414;2023-07-24T08:05:43;10.77;;;6.22;;
42704;SDS011;28342;42.594;23.414;2023-07-24T08:08:09;14.90;;;7.60;;
42704;SDS011;28342;42.594;23.414;2023-07-24T08:10:38;11.52;;;6.50;;
42704;SDS011;28342;42.594;23.414;2023-07-24T08:13:04;11.40;;;7.43;;
42704;SDS011;28342;42.594;23.414;2023-07-24T08:15:33;14.02;;;6.93;;
42704;SDS011;28342;42.594;23.414;2023-07-24T08:18:00;13.95;;;7.68;;
42704;SDS011;28342;42.594;23.414;2023-07-24T08:20:26;11.27;;;6.82;;
42704;SDS011;28342;42.594;23.414;2023-07-24T08:22:51;12.88;;;6.63;;
42704;SDS011;28342;42.594;23.414;2023-07-24T08:25:17;12.52;;;6.97;;
42704;SDS011;28342;42.594;23.414;2023-07-24T08:27:42;9.95;;;6.03;;
42704;SDS011;28342;42.594;23.414;2023-07-24T08:30:08;12.85;;;7.20;;
42704;SDS011;28342;42.594;23.414;2023-07-24T08:32:34;12.38;;;7.00;;
42704;SDS011;28342;42.594;23.414;2023-07-24T08:34:59;13.68;;;6.53;;
42704;SDS011;28342;42.594;23.414;2023-07-24T08:37:24;10.55;;;6.28;;
42704;SDS011;28342;42.594;23.414;2023-07-24T08:39:50;10.45;;;6.13;;
42704;SDS011;28342;42.594;23.414;2023-07-24T08:42:15;10.15;;;6.50;;
42704;SDS011;28342;42.594;23.414;2023-07-24T08:44:41;10.70;;;6.65;;
42704;SDS011;28342;42.594;23.414;2023-07-24T08:47:10;13.43;;;6.07;;
42704;SDS011;28342;42.594;23.414;2023-07-24T08:49:39;12.80;;;6.45;;
42704;SDS011;28342;42.594;23.414;2023-07-24T08:52:08;10.30;;;5.97;;
42704;SDS011;28342;42.594;23.414;2023-07-24T08:54:37;15.05;;;6.82;;
42704;SDS011;28342;42.594;23.414;2023-07-24T08:57:04;9.85;;;6.13;;
42704;SDS011;28342;42.594;23.414;2023-07-24T08:59:31;12.40;;;6.72;;
42704;SDS011;28342;42.594;23.414;2023-07-24T09:01:56;13.52;;;6.43;;
42704;SDS011;28342;42.594;23.414;2023-07-24T09:04:22;9.65;;;6.03;;
42704;SDS011;28342;42.594;23.414;2023-07-24T09:06:48;12.40;;;6.82;;
42704;SDS011;28342;42.594;23.414;2023-07-24T09:09:15;10.70;;;6.07;;
42704;SDS011;28342;42.594;23.414;2023-07-24T09:11:51;12.75;;;6.45;;
42704;SDS011;28342;42.594;23.414;2023-07-24T09:14:22;12.43;;;6.13;;
42704;SDS011;28342;42.594;23.414;2023-07-24T09:16:48;14.93;;;7.25;;
42704;SDS011;28342;42.594;23.414;2023-07-24T09:19:18;10.52;;;6.03;;
42704;SDS011;28342;42.594;23.414;2023-07-24T09:21:44;12.73;;;7.03;;
42704;SDS011;28342;42.594;23.414;2023-07-24T09:24:12;13.02;;;6.93;;
42704;SDS011;28342;42.594;23.414;2023-07-24T09:26:48;12.82;;;7.50;;
42704;SDS011;28342;42.594;23.414;2023-07-24T09:29:18;12.90;;;6.68;;
42704;SDS011;28342;42.594;23.414;2023-07-24T09:31:44;11.65;;;6.75;;
42704;SDS011;28342;42.594;23.414;2023-07-24T09:34:14;15.85;;;6.88;;
42704;SDS011;28342;42.594;23.414;2023-07-24T09:36:43;14.20;;;7.45;;
42704;SDS011;28342;42.594;23.414;2023-07-24T09:39:09;12.95;;;6.93;;
42704;SDS011;28342;42.594;23.414;2023-07-24T09:41:38;13.25;;;7.15;;
42704;SDS011;28342;42.594;23.414;2023-07-24T09:44:05;14.10;;;7.60;;
42704;SDS011;28342;42.594;23.414;2023-07-24T09:46:30;14.13;;;7.65;;
42704;SDS011;28342;42.594;23.414;2023-07-24T09:48:57;13.95;;;7.10;;
42704;SDS011;28342;42.594;23.414;2023-07-24T09:51:23;11.63;;;6.80;;
42704;SDS011;28342;42.594;23.414;2023-07-24T09:53:54;15.70;;;7.70;;
42704;SDS011;28342;42.594;23.414;2023-07-24T09:56:23;15.38;;;7.82;;
42704;SDS011;28342;42.594;23.414;2023-07-24T09:58:49;16.83;;;7.47;;
42704;SDS011;28342;42.594;23.414;2023-07-24T10:01:20;16.08;;;7.55;;
42704;SDS011;28342;42.594;23.414;2023-07-24T10:03:49;15.15;;;8.23;;
42704;SDS011;28342;42.594;23.414;2023-07-24T10:06:15;15.48;;;7.97;;
42704;SDS011;28342;42.594;23.414;2023-07-24T10:08:44;18.42;;;7.22;;
42704;SDS011;28342;42.594;23.414;2023-07-24T10:11:11;13.73;;;7.38;;
42704;SDS011;28342;42.594;23.414;2023-07-24T10:13:38;13.57;;;7.40;;
42704;SDS011;28342;42.594;23.414;2023-07-24T10:16:07;13.93;;;8.13;;
42704;SDS011;28342;42.594;23.414;2023-07-24T10:18:34;13.60;;;8.32;;
42704;SDS011;28342;42.594;23.414;2023-07-24T10:21:01;12.90;;;8.05;;
42704;SDS011;28342;42.594;23.414;2023-07-24T10:23:28;14.02;;;7.97;;
42704;SDS011;28342;42.594;23.414;2023-07-24T10:25:54;16.23;;;8.35;;
42704;SDS011;28342;42.594;23.414;2023-07-24T10:28:29;13.43;;;8.05;;
42704;SDS011;28342;42.594;23.414;2023-07-24T10:30:56;15.00;;;8.90;;
42704;SDS011;28342;42.594;23.414;2023-07-24T10:33:24;15.65;;;8.45;;
42704;SDS011;28342;42.594;23.414;2023-07-24T10:35:54;16.80;;;8.23;;
42704;SDS011;28342;42.594;23.414;2023-07-24T10:38:36;13.50;;;7.85;;
42704;SDS011;28342;42.594;23.414;2023-07-24T10:41:04;13.38;;;8.48;;
42704;SDS011;28342;42.594;23.414;2023-07-24T10:46:09;15.43;;;8.48;;
42704;SDS011;28342;42.594;23.414;2023-07-24T10:48:35;13.82;;;8.10;;
42704;SDS011;28342;42.594;23.414;2023-07-24T10:51:05;15.40;;;8.40;;
42704;SDS011;28342;42.594;23.414;2023-07-24T10:53:34;13.23;;;7.13;;
42704;SDS011;28342;42.594;23.414;2023-07-24T10:56:00;13.07;;;7.53;;
42704;SDS011;28342;42.594;23.414;2023-07-24T10:58:26;11.20;;;7.03;;
42704;SDS011;28342;42.594;23.414;2023-07-24T11:00:52;10.90;;;6.95;;
42704;SDS011;28342;42.594;23.414;2023-07-24T11:03:18;13.48;;;7.25;;
42704;SDS011;28342;42.594;23.414;2023-07-24T11:05:45;14.15;;;7.45;;
42704;SDS011;28342;42.594;23.414;2023-07-24T11:08:12;12.13;;;7.13;;
42704;SDS011;28342;42.594;23.414;2023-07-24T11:10:51;14.15;;;6.90;;
42704;SDS011;28342;42.594;23.414;2023-07-24T11:13:20;12.88;;;6.85;;
42704;SDS011;28342;42.594;23.414;2023-07-24T11:15:47;9.55;;;6.30;;
42704;SDS011;28342;42.594;23.414;2023-07-24T11:18:13;13.27;;;6.53;;
42704;SDS011;28342;42.594;23.414;2023-07-24T11:20:44;14.75;;;6.90;;
42704;SDS011;28342;42.594;23.414;2023-07-24T11:23:13;13.95;;;7.28;;
42704;SDS011;28342;42.594;23.414;2023-07-24T11:25:39;10.18;;;6.68;;
42704;SDS011;28342;42.594;23.414;2023-07-24T11:28:05;20.85;;;10.18;;
42704;SDS011;28342;42.594;23.414;2023-07-24T11:30:32;12.05;;;7.18;;
42704;SDS011;28342;42.594;23.414;2023-07-24T11:32:58;12.05;;;6.97;;
42704;SDS011;28342;42.594;23.414;2023-07-24T11:35:26;13.35;;;7.30;;
42704;SDS011;28342;42.594;23.414;2023-07-24T11:37:52;13.40;;;7.07;;
42704;SDS011;28342;42.594;23.414;2023-07-24T11:40:17;13.82;;;6.70;;
42704;SDS011;28342;42.594;23.414;2023-07-24T11:42:45;18.25;;;7.05;;
42704;SDS011;28342;42.594;23.414;2023-07-24T11:45:12;11.95;;;6.80;;
42704;SDS011;28342;42.594;23.414;2023-07-24T11:47:41;10.82;;;6.55;;
42704;SDS011;28342;42.594;23.414;2023-07-24T11:50:16;11.85;;;6.93;;
42704;SDS011;28342;42.594;23.414;2023-07-24T11:52:43;13.50;;;6.43;;
42704;SDS011;28342;42.594;23.414;2023-07-24T11:55:17;11.88;;;6.03;;
42704;SDS011;28342;42.594;23.414;2023-07-24T11:57:54;11.45;;;6.63;;
42704;SDS011;28342;42.594;23.414;2023-07-24T12:00:23;9.68;;;5.13;;
42704;SDS011;28342;42.594;23.414;2023-07-24T12:02:49;12.50;;;6.15;;
42704;SDS011;28342;42.594;23.414;2023-07-24T12:05:15;10.65;;;6.07;;
42704;SDS011;28342;42.594;23.414;2023-07-24T12:07:42;7.70;;;5.43;;
42704;SDS011;28342;42.594;23.414;2023-07-24T12:10:11;11.02;;;5.90;;
42704;SDS011;28342;42.594;23.414;2023-07-24T12:12:45;9.88;;;5.68;;
42704;SDS011;28342;42.594;23.414;2023-07-24T12:17:37;10.15;;;5.32;;
42704;SDS011;28342;42.594;23.414;2023-07-24T12:20:03;14.32;;;6.38;;
42704;SDS011;28342;42.594;23.414;2023-07-24T12:22:31;11.80;;;6.05;;
42704;SDS011;28342;42.594;23.414;2023-07-24T12:24:57;10.30;;;5.40;;
42704;SDS011;28342;42.594;23.414;2023-07-24T12:27:24;10.05;;;5.82;;
42704;SDS011;28342;42.594;23.414;2023-07-24T12:29:50;11.82;;;5.95;;
42704;SDS011;28342;42.594;23.414;2023-07-24T12:32:16;15.52;;;6.05;;
42704;SDS011;28342;42.594;23.414;2023-07-24T12:34:42;10.45;;;5.78;;
42704;SDS011;28342;42.594;23.414;2023-07-24T12:37:17;11.98;;;5.47;;
42704;SDS011;28342;42.594;23.414;2023-07-24T12:39:44;9.63;;;5.75;;
42704;SDS011;28342;42.594;23.414;2023-07-24T12:42:10;8.82;;;5.78;;
42704;SDS011;28342;42.594;23.414;2023-07-24T12:44:36;11.40;;;6.07;;
42704;SDS011;28342;42.594;23.414;2023-07-24T12:47:02;10.05;;;6.07;;
42704;SDS011;28342;42.594;23.414;2023-07-24T12:49:28;9.88;;;5.55;;
42704;SDS011;28342;42.594;23.414;2023-07-24T12:51:53;10.10;;;5.60;;
42704;SDS011;28342;42.594;23.414;2023-07-24T12:54:19;9.98;;;6.20;;
42704;SDS011;28342;42.594;23.414;2023-07-24T12:56:45;9.27;;;5.82;;
42704;SDS011;28342;42.594;23.414;2023-07-24T12:59:11;9.77;;;5.95;;
42704;SDS011;28342;42.594;23.414;2023-07-24T13:01:37;13.48;;;6.75;;
42704;SDS011;28342;42.594;23.414;2023-07-24T13:04:02;11.35;;;5.50;;
42704;SDS011;28342;42.594;23.414;2023-07-24T13:06:27;17.05;;;6.00;;
42704;SDS011;28342;42.594;23.414;2023-07-24T13:08:53;13.48;;;6.82;;
42704;SDS011;28342;42.594;23.414;2023-07-24T13:11:18;9.18;;;5.72;;
42704;SDS011;28342;42.594;23.414;2023-07-24T13:13:44;11.00;;;6.22;;
42704;SDS011;28342;42.594;23.414;2023-07-24T13:16:16;13.32;;;6.35;;
42704;SDS011;28342;42.594;23.414;2023-07-24T13:18:42;9.80;;;5.80;;
42704;SDS011;28342;42.594;23.414;2023-07-24T13:21:07;9.10;;;5.63;;
42704;SDS011;28342;42.594;23.414;2023-07-24T13:23:33;9.85;;;5.50;;
42704;SDS011;28342;42.594;23.414;2023-07-24T13:25:59;9.38;;;5.65;;
42704;SDS011;28342;42.594;23.414;2023-07-24T13:28:24;9.63;;;5.53;;
42704;SDS011;28342;42.594;23.414;2023-07-24T13:30:50;10.30;;;5.97;;
42704;SDS011;28342;42.594;23.414;2023-07-24T13:33:16;11.45;;;5.72;;
42704;SDS011;28342;42.594;23.414;2023-07-24T13:35:42;8.30;;;5.63;;
42704;SDS011;28342;42.594;23.414;2023-07-24T13:38:07;10.20;;;6.03;;
42704;SDS011;28342;42.594;23.414;2023-07-24T13:40:33;10.27;;;6.22;;
42704;SDS011;28342;42.594;23.414;2023-07-24T13:42:59;10.50;;;5.75;;
42704;SDS011;28342;42.594;23.414;2023-07-24T13:45:25;8.95;;;6.30;;
42704;SDS011;28342;42.594;23.414;2023-07-24T13:47:50;9.80;;;6.18;;
42704;SDS011;28342;42.594;23.414;2023-07-24T13:50:16;10.70;;;5.90;;
42704;SDS011;28342;42.594;23.414;2023-07-24T13:52:41;11.50;;;5.82;;
42704;SDS011;28342;42.594;23.414;2023-07-24T13:55:07;11.68;;;5.97;;
42704;SDS011;28342;42.594;23.414;2023-07-24T13:57:32;10.95;;;6.18;;
42704;SDS011;28342;42.594;23.414;2023-07-24T13:59:58;10.55;;;5.97;;
42704;SDS011;28342;42.594;23.414;2023-07-24T14:02:23;13.98;;;6.47;;
42704;SDS011;28342;42.594;23.414;2023-07-24T14:04:48;11.35;;;5.55;;
42704;SDS011;28342;42.594;23.414;2023-07-24T14:07:14;10.00;;;5.82;;
42704;SDS011;28342;42.594;23.414;2023-07-24T14:09:39;12.25;;;5.78;;
42704;SDS011;28342;42.594;23.414;2023-07-24T14:12:05;10.15;;;6.18;;
42704;SDS011;28342;42.594;23.414;2023-07-24T14:14:31;9.68;;;5.20;;
42704;SDS011;28342;42.594;23.414;2023-07-24T14:16:56;8.10;;;5.53;;
42704;SDS011;28342;42.594;23.414;2023-07-24T14:19:22;8.55;;;5.60;;
42704;SDS011;28342;42.594;23.414;2023-07-24T14:21:51;9.20;;;5.82;;
42704;SDS011;28342;42.594;23.414;2023-07-24T14:24:17;9.02;;;5.75;;
42704;SDS011;28342;42.594;23.414;2023-07-24T14:26:49;11.97;;;6.07;;
42704;SDS011;28342;42.594;23.414;2023-07-24T14:29:15;11.73;;;5.85;;